高雄終端管制區 - 高雄雷達席

METAR RCKH 182330Z 36004KT 330V060 5000 HZ FEW012 SCT040 BKN060 20/16 Q1020 NOSIG RMK A3013=

站台狀態:Online
最後更新:2019-01-19 07:30:02